createdAt,value
2017-12-04T00:00:25.451Z,18.73
2017-12-04T00:02:52.047Z,19.00
2017-12-04T00:05:18.654Z,20.63
2017-12-04T00:07:45.241Z,18.00
2017-12-04T00:10:11.837Z,18.37
2017-12-04T00:12:38.454Z,20.20
2017-12-04T00:15:05.042Z,18.93
2017-12-04T00:17:31.637Z,21.03
2017-12-04T00:19:58.236Z,21.03
2017-12-04T00:22:24.846Z,20.07
2017-12-04T00:24:51.438Z,20.10
2017-12-04T00:27:18.044Z,21.70
2017-12-04T00:29:44.669Z,19.07
2017-12-04T00:32:11.254Z,19.90
2017-12-04T00:34:37.876Z,17.83
2017-12-04T00:37:04.463Z,19.93
2017-12-04T00:39:31.051Z,19.23
2017-12-04T00:41:57.650Z,22.47
2017-12-04T00:44:24.253Z,23.23
2017-12-04T00:46:50.855Z,24.80
2017-12-04T00:49:17.457Z,25.83
2017-12-04T00:51:44.050Z,21.83
2017-12-04T00:54:10.646Z,22.03
2017-12-04T00:56:37.261Z,24.57
2017-12-04T00:59:03.842Z,22.20
2017-12-04T01:01:30.430Z,20.30
2017-12-04T01:03:57.052Z,25.27
2017-12-04T01:06:23.645Z,20.93
2017-12-04T01:08:50.239Z,23.10
2017-12-04T01:11:16.850Z,25.47
2017-12-04T01:13:43.442Z,22.87
2017-12-04T01:16:10.037Z,19.90
2017-12-04T01:18:36.650Z,27.47
2017-12-04T01:21:03.248Z,24.93
2017-12-04T01:23:29.833Z,26.77
2017-12-04T01:25:56.447Z,26.03
2017-12-04T01:28:23.039Z,22.27
2017-12-04T01:30:49.640Z,26.53
2017-12-04T01:33:16.242Z,21.53
2017-12-04T01:35:42.838Z,22.07
2017-12-04T01:38:09.439Z,23.47
2017-12-04T01:40:36.049Z,24.40
2017-12-04T01:43:02.642Z,24.03
2017-12-04T01:45:29.227Z,22.67
2017-12-04T01:47:55.838Z,20.87
2017-12-04T01:50:22.430Z,19.23
2017-12-04T01:52:49.037Z,18.40
2017-12-04T01:55:15.634Z,17.73
2017-12-04T01:57:42.230Z,20.70
2017-12-04T02:00:08.827Z,20.07
2017-12-04T02:02:35.434Z,19.80
2017-12-04T02:05:02.022Z,23.23
2017-12-04T02:07:28.623Z,22.77
2017-12-04T02:09:55.221Z,19.20
2017-12-04T02:12:21.823Z,20.30
2017-12-04T02:14:48.413Z,16.87
2017-12-04T02:17:15.026Z,19.47
2017-12-04T02:19:41.632Z,20.03
2017-12-04T02:22:08.226Z,21.73
2017-12-04T02:24:34.900Z,23.07
2017-12-04T02:27:01.488Z,25.20
2017-12-04T02:29:28.078Z,21.37
2017-12-04T02:31:54.679Z,20.67
2017-12-04T02:34:21.275Z,22.10
2017-12-04T02:36:47.875Z,22.63
2017-12-04T02:39:14.482Z,21.80
2017-12-04T02:41:41.078Z,25.53
2017-12-04T02:44:07.677Z,22.20
2017-12-04T02:46:34.306Z,21.93
2017-12-04T02:49:00.903Z,20.53
2017-12-04T02:51:27.491Z,25.60
2017-12-04T02:53:54.474Z,19.90
2017-12-04T02:56:21.067Z,19.93
2017-12-04T02:58:47.677Z,22.97
2017-12-04T03:01:14.294Z,25.20
2017-12-04T03:03:40.898Z,20.07
2017-12-04T03:06:07.500Z,22.47
2017-12-04T03:08:34.114Z,19.00
2017-12-04T03:11:00.710Z,23.43
2017-12-04T03:13:27.297Z,23.33
2017-12-04T03:15:53.916Z,20.00
2017-12-04T03:18:20.519Z,27.33
2017-12-04T03:20:47.106Z,22.63
2017-12-04T03:23:13.709Z,20.40
2017-12-04T03:25:40.297Z,22.73
2017-12-04T03:28:06.891Z,23.43
2017-12-04T03:30:33.523Z,20.90
2017-12-04T03:33:00.109Z,19.80
2017-12-04T03:35:26.702Z,24.53
2017-12-04T03:37:53.646Z,20.37
2017-12-04T03:40:20.233Z,24.07
2017-12-04T03:42:46.828Z,21.43
2017-12-04T03:45:13.426Z,20.83
2017-12-04T03:47:40.021Z,21.77
2017-12-04T03:50:06.614Z,21.37
2017-12-04T03:52:33.232Z,22.70
2017-12-04T03:54:59.820Z,26.73
2017-12-04T03:57:26.406Z,22.17
2017-12-04T03:59:53.007Z,26.70
2017-12-04T04:02:19.602Z,20.33
2017-12-04T04:04:46.202Z,24.83
2017-12-04T04:07:12.807Z,25.70
2017-12-04T04:09:39.393Z,21.57
2017-12-04T04:12:05.992Z,20.63
2017-12-04T04:14:32.601Z,24.00
2017-12-04T04:16:59.186Z,23.13
2017-12-04T04:19:25.773Z,26.40
2017-12-04T04:21:52.382Z,23.30
2017-12-04T04:24:18.978Z,23.87
2017-12-04T04:26:45.586Z,22.03
2017-12-04T04:29:12.182Z,24.27
2017-12-04T04:31:38.782Z,21.57
2017-12-04T04:34:05.382Z,25.03
2017-12-04T04:36:31.998Z,25.30
2017-12-04T04:38:58.590Z,26.73
2017-12-04T04:41:25.182Z,21.03
2017-12-04T04:43:51.802Z,21.03
2017-12-04T04:46:18.394Z,26.60
2017-12-04T04:48:44.986Z,28.60
2017-12-04T04:51:11.603Z,31.27
2017-12-04T04:53:38.202Z,24.70
2017-12-04T04:56:04.835Z,28.43
2017-12-04T04:58:31.434Z,30.77
2017-12-04T05:00:58.031Z,33.50
2017-12-04T05:03:24.618Z,25.83
2017-12-04T05:05:51.233Z,28.63
2017-12-04T05:08:17.830Z,31.47
2017-12-04T05:10:44.418Z,24.30
2017-12-04T05:13:11.050Z,22.87
2017-12-04T05:15:38.377Z,22.83
2017-12-04T05:18:04.973Z,24.23
2017-12-04T05:20:31.602Z,21.50
2017-12-04T05:22:58.193Z,22.77
2017-12-04T05:25:24.778Z,25.83
2017-12-04T05:27:51.387Z,28.30
2017-12-04T05:30:17.979Z,27.00
2017-12-04T05:32:44.578Z,29.97
2017-12-04T05:35:11.186Z,30.13
2017-12-04T05:37:37.789Z,28.93
2017-12-04T05:40:04.390Z,29.30
2017-12-04T05:42:31.006Z,37.60
2017-12-04T05:44:57.591Z,37.83
2017-12-04T05:47:24.179Z,38.23
2017-12-04T05:49:50.793Z,30.47
2017-12-04T05:52:17.394Z,36.87
2017-12-04T05:54:44.705Z,32.60
2017-12-04T05:57:11.319Z,34.73
2017-12-04T05:59:37.905Z,37.97
2017-12-04T06:02:04.495Z,36.57
2017-12-04T06:04:31.117Z,40.00
2017-12-04T06:06:57.701Z,37.30
2017-12-04T06:09:24.290Z,38.27
2017-12-04T06:11:50.896Z,35.33
2017-12-04T06:14:17.485Z,36.93
2017-12-04T06:16:44.074Z,38.17
2017-12-04T06:19:10.678Z,40.77
2017-12-04T06:21:37.277Z,41.60
2017-12-04T06:24:03.866Z,40.73
2017-12-04T06:26:30.474Z,50.70
2017-12-04T06:28:57.063Z,43.77
2017-12-04T06:31:23.646Z,39.57
2017-12-04T06:33:50.310Z,47.07
2017-12-04T06:36:16.902Z,37.97
2017-12-04T06:38:43.496Z,38.50
2017-12-04T06:41:10.104Z,39.87
2017-12-04T06:43:36.693Z,51.20
2017-12-04T06:46:03.290Z,45.07
2017-12-04T06:48:29.954Z,50.73
2017-12-04T06:50:56.503Z,49.97
2017-12-04T06:53:23.102Z,44.60
2017-12-04T06:55:49.713Z,43.37
2017-12-04T06:58:16.298Z,46.43
2017-12-04T07:00:42.898Z,40.10
2017-12-04T07:03:09.494Z,38.00
2017-12-04T07:05:36.088Z,54.87
2017-12-04T07:08:02.679Z,43.87
2017-12-04T07:10:29.318Z,47.40
2017-12-04T07:12:55.910Z,51.37
2017-12-04T07:15:22.509Z,47.80
2017-12-04T07:17:49.124Z,51.40
2017-12-04T07:20:15.706Z,47.07
2017-12-04T07:22:42.294Z,43.77
2017-12-04T07:25:08.910Z,44.70
2017-12-04T07:27:35.506Z,41.67
2017-12-04T07:30:02.107Z,38.83
2017-12-04T07:32:28.710Z,49.30
2017-12-04T07:34:55.298Z,42.57
2017-12-04T07:37:21.893Z,54.07
2017-12-04T07:39:48.503Z,48.57
2017-12-04T07:42:15.090Z,55.80
2017-12-04T07:44:41.682Z,55.88
2017-12-04T07:47:08.298Z,53.03
2017-12-04T07:49:34.890Z,48.93
2017-12-04T07:52:01.481Z,47.70
2017-12-04T07:54:28.090Z,49.27
2017-12-04T07:56:54.678Z,50.77
2017-12-04T07:59:21.270Z,48.53
2017-12-04T08:01:47.874Z,45.03
2017-12-04T08:04:14.464Z,50.40
2017-12-04T08:06:41.062Z,52.43
2017-12-04T08:09:07.674Z,44.50
2017-12-04T08:11:34.266Z,47.27
2017-12-04T08:14:00.859Z,50.93
2017-12-04T08:16:27.464Z,53.20
2017-12-04T08:18:54.063Z,55.30
2017-12-04T08:21:20.662Z,45.87
2017-12-04T08:23:47.261Z,55.33
2017-12-04T08:26:13.850Z,46.50
2017-12-04T08:28:40.474Z,50.97
2017-12-04T08:31:07.124Z,49.60
2017-12-04T08:33:33.706Z,49.30
2017-12-04T08:36:00.294Z,60.17
2017-12-04T08:38:26.914Z,48.07
2017-12-04T08:40:53.506Z,61.47
2017-12-04T08:43:20.096Z,58.70
2017-12-04T08:45:46.694Z,53.50
2017-12-04T08:48:13.314Z,52.67
2017-12-04T08:50:39.882Z,47.40
2017-12-04T08:53:06.481Z,68.37
2017-12-04T08:55:33.081Z,69.30
2017-12-04T08:57:59.671Z,66.57
2017-12-04T09:00:26.301Z,72.80
2017-12-04T09:02:52.886Z,65.60
2017-12-04T09:05:19.466Z,72.40
2017-12-04T09:07:46.070Z,67.67
2017-12-04T09:10:12.666Z,56.50
2017-12-04T09:12:39.259Z,77.87
2017-12-04T09:15:05.861Z,68.07
2017-12-04T09:17:32.458Z,66.07
2017-12-04T09:19:59.050Z,77.47
2017-12-04T09:22:25.662Z,84.73
2017-12-04T09:24:52.260Z,70.80
2017-12-04T09:27:18.848Z,61.90
2017-12-04T09:29:45.446Z,67.63
2017-12-04T09:32:12.061Z,67.47
2017-12-04T09:34:38.654Z,53.77
2017-12-04T09:37:05.311Z,56.60
2017-12-04T09:39:31.889Z,70.20
2017-12-04T09:41:58.491Z,58.80
2017-12-04T09:44:25.102Z,75.20
2017-12-04T09:46:51.690Z,68.40
2017-12-04T09:49:18.286Z,72.90
2017-12-04T09:51:44.894Z,64.90
2017-12-04T09:54:11.481Z,64.00
2017-12-04T09:56:38.082Z,72.20
2017-12-04T09:59:04.690Z,66.50
2017-12-04T10:01:31.265Z,63.40
2017-12-04T10:03:57.853Z,61.90
2017-12-04T10:06:24.458Z,69.00
2017-12-04T10:08:51.050Z,62.33
2017-12-04T10:11:17.642Z,60.27
2017-12-04T10:13:44.253Z,62.63
2017-12-04T10:16:10.843Z,67.27
2017-12-04T10:18:37.426Z,66.83
2017-12-04T10:21:04.038Z,60.10
2017-12-04T10:23:30.626Z,61.50
2017-12-04T10:25:57.217Z,75.40
2017-12-04T10:28:23.810Z,62.50
2017-12-04T10:30:50.417Z,69.53
2017-12-04T10:33:16.998Z,68.43
2017-12-04T10:35:43.586Z,61.40
2017-12-04T10:38:10.190Z,73.37
2017-12-04T10:40:36.774Z,58.03
2017-12-04T10:43:03.379Z,78.67
2017-12-04T10:45:29.966Z,58.13
2017-12-04T10:47:56.562Z,75.33
2017-12-04T10:50:23.154Z,75.47
2017-12-04T10:52:49.751Z,59.37
2017-12-04T10:55:16.354Z,73.97
2017-12-04T10:57:42.947Z,59.40
2017-12-04T11:00:09.530Z,55.80
2017-12-04T11:02:36.126Z,54.07
2017-12-04T11:05:02.713Z,68.30
2017-12-04T11:07:29.326Z,56.13
2017-12-04T11:09:55.926Z,57.50
2017-12-04T11:12:22.510Z,73.03
2017-12-04T11:14:49.115Z,66.67
2017-12-04T11:17:15.703Z,55.97
2017-12-04T11:19:42.310Z,61.93
2017-12-04T11:22:08.906Z,54.53
2017-12-04T11:24:35.494Z,54.33
2017-12-04T11:27:02.165Z,55.90
2017-12-04T11:29:28.705Z,54.47
2017-12-04T11:31:55.291Z,51.37
2017-12-04T11:34:21.894Z,51.83
2017-12-04T11:36:48.494Z,45.57
2017-12-04T11:39:15.087Z,52.20
2017-12-04T11:41:41.686Z,50.10
2017-12-04T11:44:08.279Z,49.47
2017-12-04T11:46:34.867Z,46.67
2017-12-04T11:49:01.470Z,46.13
2017-12-04T11:51:28.058Z,45.10
2017-12-04T11:53:54.674Z,46.00
2017-12-04T11:56:21.266Z,45.03
2017-12-04T11:58:47.878Z,51.50
2017-12-04T12:01:14.458Z,61.20
2017-12-04T12:03:41.054Z,51.80
2017-12-04T12:06:07.668Z,51.70
2017-12-04T12:08:34.255Z,51.30
2017-12-04T12:11:00.851Z,42.77
2017-12-04T12:13:27.446Z,45.13
2017-12-04T12:15:54.145Z,44.47
2017-12-04T12:18:20.743Z,45.37
2017-12-04T12:20:47.330Z,46.83
2017-12-04T12:23:13.922Z,49.13
2017-12-04T12:25:40.518Z,44.77
2017-12-04T12:28:07.114Z,47.20
2017-12-04T12:30:33.707Z,48.43
2017-12-04T12:33:00.313Z,49.13
2017-12-04T12:35:26.918Z,48.53
2017-12-04T12:40:26.640Z,44.67
2017-12-04T12:42:53.241Z,37.73
2017-12-04T12:45:19.832Z,39.53
2017-12-04T12:47:46.419Z,37.03
2017-12-04T12:50:13.018Z,40.97
2017-12-04T12:52:39.613Z,54.73
2017-12-04T12:55:06.214Z,49.67
2017-12-04T12:57:32.813Z,48.90
2017-12-04T12:59:59.407Z,44.97
2017-12-04T13:02:26.001Z,60.80
2017-12-04T13:04:52.590Z,43.17
2017-12-04T13:07:19.190Z,59.40
2017-12-04T13:09:45.790Z,54.30
2017-12-04T13:12:12.379Z,54.23
2017-12-04T13:14:38.990Z,62.13
2017-12-04T13:17:05.586Z,51.27
2017-12-04T13:19:32.198Z,44.27
2017-12-04T13:21:58.794Z,42.77
2017-12-04T13:24:25.378Z,55.73
2017-12-04T13:26:51.975Z,45.37
2017-12-04T13:29:18.579Z,41.23
2017-12-04T13:31:45.181Z,45.73
2017-12-04T13:34:32.439Z,41.63
2017-12-04T13:36:59.035Z,43.60
2017-12-04T13:39:25.623Z,45.40
2017-12-04T13:41:52.223Z,44.80
2017-12-04T13:44:18.811Z,44.37
2017-12-04T13:46:45.394Z,46.57
2017-12-04T13:49:11.998Z,39.10
2017-12-04T13:51:38.599Z,45.43
2017-12-04T13:54:05.198Z,55.80
2017-12-04T13:56:31.798Z,44.50
2017-12-04T13:58:58.405Z,38.57
2017-12-04T14:01:25.163Z,51.03
2017-12-04T14:03:51.754Z,38.73
2017-12-04T14:06:18.346Z,38.53
2017-12-04T14:08:44.943Z,46.10
2017-12-04T14:11:11.550Z,49.53
2017-12-04T14:13:38.148Z,40.70
2017-12-04T14:16:04.735Z,49.80
2017-12-04T14:18:31.322Z,42.67
2017-12-04T14:20:57.930Z,47.53
2017-12-04T14:23:24.523Z,45.53
2017-12-04T14:25:51.182Z,44.43
2017-12-04T14:28:17.778Z,39.87
2017-12-04T14:30:44.366Z,46.33
2017-12-04T14:33:10.962Z,50.93
2017-12-04T14:35:37.586Z,38.90
2017-12-04T14:38:04.186Z,46.70
2017-12-04T14:40:30.774Z,33.70
2017-12-04T14:42:57.366Z,36.13
2017-12-04T14:45:23.966Z,38.63
2017-12-04T14:47:50.562Z,36.63
2017-12-04T14:50:17.146Z,33.17
2017-12-04T14:52:43.795Z,39.77
2017-12-04T14:55:10.382Z,42.43
2017-12-04T14:57:36.969Z,36.60
2017-12-04T15:00:03.569Z,36.60
2017-12-04T15:02:30.158Z,44.57
2017-12-04T15:04:56.746Z,35.23
2017-12-04T15:07:23.345Z,40.13
2017-12-04T15:09:49.934Z,35.80
2017-12-04T15:12:16.526Z,31.57
2017-12-04T15:14:43.138Z,44.17
2017-12-04T15:17:09.727Z,35.33
2017-12-04T15:19:36.318Z,29.23
2017-12-04T15:22:02.931Z,40.10
2017-12-04T15:24:29.514Z,40.57
2017-12-04T15:26:56.105Z,39.40
2017-12-04T15:29:22.706Z,27.90
2017-12-04T15:31:49.294Z,38.80
2017-12-04T15:34:15.891Z,31.67
2017-12-04T15:36:42.499Z,33.33
2017-12-04T15:39:09.090Z,34.27
2017-12-04T15:41:35.677Z,30.73
2017-12-04T15:44:02.278Z,40.60
2017-12-04T15:46:28.906Z,42.47
2017-12-04T15:48:55.819Z,33.73
2017-12-04T15:51:22.426Z,39.50
2017-12-04T15:53:49.022Z,28.93
2017-12-04T15:56:15.623Z,36.37
2017-12-04T15:58:42.261Z,35.00
2017-12-04T16:01:08.855Z,33.77
2017-12-04T16:03:35.498Z,37.73
2017-12-04T16:06:03.153Z,51.57
2017-12-04T16:08:29.722Z,36.30
2017-12-04T16:10:56.335Z,40.87
2017-12-04T16:13:22.942Z,34.43
2017-12-04T16:15:49.537Z,40.70
2017-12-04T16:18:16.134Z,42.93
2017-12-04T16:20:42.758Z,36.77
2017-12-04T16:23:09.352Z,37.97
2017-12-04T16:25:35.942Z,39.03
2017-12-04T16:28:02.566Z,38.83
2017-12-04T16:30:29.201Z,35.70
2017-12-04T16:32:55.798Z,35.83
2017-12-04T16:35:22.418Z,39.50
2017-12-04T16:37:49.071Z,41.40
2017-12-04T16:40:15.646Z,32.63
2017-12-04T16:42:42.270Z,34.77
2017-12-04T16:45:09.426Z,35.03
2017-12-04T16:47:36.014Z,35.03
2017-12-04T16:50:02.614Z,34.60
2017-12-04T16:52:29.205Z,27.53
2017-12-04T16:54:55.803Z,36.40
2017-12-04T16:57:22.415Z,37.53
2017-12-04T16:59:49.014Z,40.37
2017-12-04T17:02:15.614Z,48.57
2017-12-04T17:04:42.214Z,45.23
2017-12-04T17:07:09.059Z,55.40
2017-12-04T17:09:35.742Z,38.33
2017-12-04T17:12:02.346Z,39.90
2017-12-04T17:14:29.294Z,41.80
2017-12-04T17:16:55.971Z,36.00
2017-12-04T17:19:22.554Z,46.97
2017-12-04T17:21:49.295Z,42.50
2017-12-04T17:24:15.894Z,32.57
2017-12-04T17:26:42.526Z,39.80
2017-12-04T17:29:09.970Z,37.60
2017-12-04T17:31:36.607Z,35.13
2017-12-04T17:34:03.214Z,46.10
2017-12-04T17:36:29.805Z,35.57
2017-12-04T17:38:56.994Z,33.50
2017-12-04T17:41:23.603Z,36.40
2017-12-04T17:43:50.194Z,38.73
2017-12-04T17:46:16.786Z,37.63
2017-12-04T17:48:43.442Z,37.53
2017-12-04T17:51:10.017Z,37.40
2017-12-04T17:53:36.596Z,37.30
2017-12-04T17:56:03.205Z,38.23
2017-12-04T17:58:29.790Z,37.13
2017-12-04T18:00:56.388Z,43.67
2017-12-04T18:03:23.178Z,39.00
2017-12-04T18:05:49.819Z,54.27
2017-12-04T18:08:16.394Z,46.43
2017-12-04T18:10:43.015Z,48.77
2017-12-04T18:13:09.697Z,49.60
2017-12-04T18:15:36.276Z,42.10
2017-12-04T18:18:02.890Z,44.77
2017-12-04T18:20:29.489Z,40.53
2017-12-04T18:22:56.073Z,44.57
2017-12-04T18:25:22.686Z,50.20
2017-12-04T18:27:49.286Z,40.37
2017-12-04T18:30:15.903Z,39.53
2017-12-04T18:32:42.510Z,39.03
2017-12-04T18:35:09.101Z,41.77
2017-12-04T18:37:35.698Z,47.53
2017-12-04T18:40:02.319Z,45.03
2017-12-04T18:42:28.913Z,53.57
2017-12-04T18:44:55.511Z,47.87
2017-12-04T18:47:22.126Z,42.10
2017-12-04T18:49:48.724Z,38.13
2017-12-04T18:52:15.323Z,43.90
2017-12-04T18:54:41.917Z,56.17
2017-12-04T18:57:08.522Z,47.70
2017-12-04T18:59:35.114Z,45.83
2017-12-04T19:02:01.723Z,53.80
2017-12-04T19:04:28.337Z,47.33
2017-12-04T19:06:54.931Z,50.50
2017-12-04T19:09:21.533Z,44.40
2017-12-04T19:11:48.119Z,49.00
2017-12-04T19:14:14.706Z,54.37
2017-12-04T19:16:41.322Z,45.40
2017-12-04T19:19:08.052Z,53.17
2017-12-04T19:21:34.621Z,52.30
2017-12-04T19:24:01.246Z,49.20
2017-12-04T19:26:27.837Z,53.63
2017-12-04T19:28:54.437Z,64.43
2017-12-04T19:31:21.042Z,55.70
2017-12-04T19:33:47.633Z,61.27
2017-12-04T19:36:14.271Z,59.60
2017-12-04T19:38:40.868Z,66.97
2017-12-04T19:41:07.464Z,65.13
2017-12-04T19:43:34.050Z,65.50
2017-12-04T19:46:00.670Z,61.57
2017-12-04T19:48:27.262Z,67.47
2017-12-04T19:50:53.865Z,60.83
2017-12-04T19:53:20.524Z,72.40
2017-12-04T19:55:47.105Z,65.30
2017-12-04T19:58:13.703Z,65.23
2017-12-04T20:00:40.323Z,62.77
2017-12-04T20:03:06.898Z,57.97
2017-12-04T20:05:33.486Z,63.00
2017-12-04T20:08:00.086Z,66.13
2017-12-04T20:10:26.691Z,67.37
2017-12-04T20:12:53.273Z,69.70
2017-12-04T20:15:19.894Z,64.63
2017-12-04T20:17:46.481Z,63.17
2017-12-04T20:20:13.080Z,61.07
2017-12-04T20:22:39.684Z,61.43
2017-12-04T20:25:06.284Z,69.33
2017-12-04T20:27:32.878Z,65.03
2017-12-04T20:29:59.487Z,58.07
2017-12-04T20:32:26.091Z,67.00
2017-12-04T20:34:52.687Z,62.17
2017-12-04T20:37:19.318Z,60.60
2017-12-04T20:39:45.906Z,61.93
2017-12-04T20:42:12.498Z,61.17
2017-12-04T20:44:39.213Z,61.90
2017-12-04T20:47:05.829Z,62.77
2017-12-04T20:49:32.645Z,68.90
2017-12-04T20:51:59.246Z,65.00
2017-12-04T20:54:25.834Z,71.70
2017-12-04T20:56:52.515Z,69.27
2017-12-04T20:59:19.190Z,62.13
2017-12-04T21:01:45.903Z,59.33
2017-12-04T21:04:12.537Z,68.13
2017-12-04T21:06:39.588Z,69.17
2017-12-04T21:09:11.887Z,64.63
2017-12-04T21:11:45.339Z,59.30
2017-12-04T21:14:17.815Z,57.73
2017-12-04T21:16:50.242Z,62.47
2017-12-04T21:19:16.856Z,57.30
2017-12-04T21:21:43.507Z,58.33
2017-12-04T21:24:10.136Z,67.70
2017-12-04T21:26:36.854Z,56.20
2017-12-04T21:29:03.454Z,59.27
2017-12-04T21:31:30.085Z,61.30
2017-12-04T21:33:56.695Z,64.17
2017-12-04T21:36:23.277Z,59.33
2017-12-04T21:38:49.917Z,63.03
2017-12-04T21:41:16.510Z,63.10
2017-12-04T21:43:43.108Z,57.10
2017-12-04T21:46:09.727Z,68.37
2017-12-04T21:48:36.318Z,62.87
2017-12-04T21:51:02.906Z,65.13
2017-12-04T21:53:29.514Z,62.50
2017-12-04T21:55:56.106Z,67.60
2017-12-04T21:58:22.700Z,61.10
2017-12-04T22:00:49.306Z,68.93
2017-12-04T22:03:15.898Z,70.67
2017-12-04T22:05:42.503Z,70.60
2017-12-04T22:08:09.115Z,68.87
2017-12-04T22:10:35.710Z,69.63
2017-12-04T22:13:02.299Z,70.50
2017-12-04T22:15:28.894Z,60.97
2017-12-04T22:17:55.477Z,66.03
2017-12-04T22:20:22.070Z,62.07
2017-12-04T22:22:48.694Z,59.93
2017-12-04T22:25:15.278Z,61.77
2017-12-04T22:27:41.870Z,65.57
2017-12-04T22:30:08.487Z,56.60
2017-12-04T22:32:35.097Z,58.03
2017-12-04T22:35:01.694Z,76.10
2017-12-04T22:37:28.302Z,62.17
2017-12-04T22:39:54.886Z,66.07
2017-12-04T22:42:21.470Z,59.33
2017-12-04T22:44:48.094Z,55.17
2017-12-04T22:47:14.694Z,54.50
2017-12-04T22:49:41.294Z,61.57
2017-12-04T22:52:07.923Z,56.03
2017-12-04T22:54:34.514Z,62.70
2017-12-04T22:57:01.098Z,64.83
2017-12-04T22:59:27.697Z,53.77
2017-12-04T23:01:54.315Z,64.03
2017-12-04T23:04:20.907Z,60.00
2017-12-04T23:06:47.502Z,58.20
2017-12-04T23:09:14.938Z,54.97
2017-12-04T23:11:41.714Z,60.60
2017-12-04T23:14:08.318Z,56.50
2017-12-04T23:16:34.902Z,63.33
2017-12-04T23:19:01.521Z,69.40
2017-12-04T23:21:28.122Z,64.43
2017-12-04T23:23:54.722Z,60.57
2017-12-04T23:26:21.332Z,59.00
2017-12-04T23:28:47.945Z,62.33
2017-12-04T23:31:14.539Z,63.37
2017-12-04T23:33:41.130Z,57.70
2017-12-04T23:36:07.749Z,69.60
2017-12-04T23:38:34.334Z,66.93
2017-12-04T23:41:00.930Z,61.60
2017-12-04T23:43:27.542Z,54.77
2017-12-04T23:45:54.126Z,54.60
2017-12-04T23:48:20.722Z,61.57
2017-12-04T23:50:47.321Z,60.23
2017-12-04T23:53:13.910Z,52.87
2017-12-04T23:55:40.510Z,52.03
2017-12-04T23:58:07.127Z,55.90
